{
  "fields": [{"type":"int","id":"_id"},{"info":{"type_override":"text","notes":"Hora UTC de lectura de los datos (AAAA-MM-DD HH:mm:SS)(+1 para CET invierno, +2 para CET verano)","label":"date"},"type":"text","id":"TIMESTAMP"},{"info":{"type_override":"text","notes":"Record Number - identificador del registro","label":"int"},"type":"text","id":"RECORD"},{"info":{"type_override":"text","notes":"Velocidad media del viento en el periodo de 10 minutos leído","label":"float"},"type":"text","id":"VV_S_WVT"},{"info":{"type_override":"text","notes":"Dirección media del viento en el periodo de 10 minutos leído","label":"float"},"type":"text","id":"DV_D1_WVT"},{"info":{"type_override":"text","notes":"Velocidad máxima del viento en el periodo de 10 minutos leído","label":"float"},"type":"text","id":"VV10m3Seg_Max"},{"info":{"type_override":"text","notes":"Dirección de la racha máxima del viento en el periodo de 10 minutos leído","label":"text"},"type":"text","id":"DV10m3Seg_SMM"},{"info":{"type_override":"text","notes":"Presión atmosférica media en el periodo de 10 minutos leído","label":"text"},"type":"text","id":"PRE_Avg"},{"info":{"type_override":"text","notes":"Temperatura del aire media en el periodo de 10 minutos leído","label":"text"},"type":"text","id":"TEM_Avg"},{"info":{"type_override":"text","notes":"Humedad relativa del aire promedio en el periodo de 10 minutos leído","label":"text"},"type":"text","id":"HUM_Avg"},{"info":{"type_override":"text","notes":"Radiación solar media en el periodo de 10 minutos leído","label":"text"},"type":"text","id":"RAD_Avg"},{"info":{"type_override":"text","notes":"Precipitación acumulada en el periodo de 10 minutos leído","label":"text"},"type":"text","id":"PLU_Tot"}],
  "records": [
    [1027544,"2026-05-04 00:00:00","5827","1.34","12.05","2.6460000000000004","22.46","1013.799","16.48","88.9","NAN","0.0"],
    [1027545,"2026-05-04 00:10:00","5828","1.3159999999999998","7.977","2.94","1.003","1013.804","16.53","88.9","NAN","0.0"],
    [1027546,"2026-05-04 00:20:00","5829","0.9640000000000001","25.79","2.025","16.42","1013.8839999999999","16.64","88.7","NAN","0.0"],
    [1027547,"2026-05-04 00:30:00","5830","0.813","36.17","1.535","50.79","1013.768","16.68","88.7","NAN","0.0"],
    [1027548,"2026-05-04 00:40:00","5831","1.3330000000000002","16.55","2.8089999999999997","14.87","1013.693","16.7","88.7","NAN","0.0"],
    [1027549,"2026-05-04 00:50:00","5832","1.311","5.461","2.7110000000000003","10.16","1013.591","16.66","88.0","NAN","0.0"],
    [1027550,"2026-05-04 01:00:00","5833","0.76","18.94","2.221","358.7","1013.466","16.66","87.8","NAN","0.0"],
    [1027551,"2026-05-04 01:10:00","5834","0.856","40.9","2.025","24.27","1013.44","16.67","87.7","NAN","0.0"],
    [1027552,"2026-05-04 01:20:00","5835","0.9540000000000001","4.542","2.025","16.08","1013.41","16.67","87.5","NAN","0.0"],
    [1027553,"2026-05-04 01:30:00","5836","0.8190000000000001","12.43","2.156","19.02","1013.291","16.75","86.9","NAN","0.0"],
    [1027554,"2026-05-04 01:40:00","5837","0.977","34.87","2.123","29.13","1013.248","16.81","86.0","NAN","0.0"],
    [1027555,"2026-05-04 01:50:00","5838","0.848","48.18","1.633","32.84","1013.202","16.78","85.5","NAN","0.0"],
    [1027556,"2026-05-04 02:00:00","5839","0.728","40.67","1.535","42.17","1013.211","16.78","85.5","NAN","0.0"],
    [1027557,"2026-05-04 02:10:00","5840","0.98","47.07","1.8619999999999999","55.31","1013.1519999999999","16.78","85.4","NAN","0.0"],
    [1027558,"2026-05-04 02:20:00","5841","0.603","46.66","1.143","55.98","1013.069","16.79","85.4","NAN","0.0"],
    [1027559,"2026-05-04 02:30:00","5842","0.575","28.5","1.764","42.02","1012.972","16.83","85.0","NAN","0.0"],
    [1027560,"2026-05-04 02:40:00","5843","0.431","53.8","1.078","47.39","1013.0010000000001","16.86","84.9","NAN","0.0"],
    [1027561,"2026-05-04 02:50:00","5844","0.249","74.87","0.882","64.66","1013.062","16.86","85.2","NAN","0.0"],
    [1027562,"2026-05-04 03:00:00","5845","0.446","68.26","0.9470000000000001","61.15","1013.2589999999999","16.86","85.3","NAN","0.0"],
    [1027563,"2026-05-04 03:10:00","5846","0.314","74.37","1.013","67.75","1013.2760000000001","16.89","85.2","NAN","0.0"],
    [1027564,"2026-05-04 03:20:00","5847","0.568","45.48","1.143","41.43","1013.2760000000001","16.93","84.1","NAN","0.0"],
    [1027565,"2026-05-04 03:30:00","5848","0.775","57.41","1.2409999999999999","64.14","1013.118","17.06","82.8","NAN","0.0"],
    [1027566,"2026-05-04 03:40:00","5849","0.9390000000000001","79.44","1.405","88.8","1012.935","17.15","81.9","NAN","0.0"],
    [1027567,"2026-05-04 03:50:00","5850","0.475","87.8","1.045","84.6","1012.923","17.18","82.9","NAN","0.0"],
    [1027568,"2026-05-04 04:00:00","5851","0.254","92.9","0.8490000000000001","110.1","1013.0089999999999","17.1","83.2","NAN","0.0"],
    [1027569,"2026-05-04 04:10:00","5852","0.258","74.05","0.98","53.17","1012.8380000000001","17.06","83.9","NAN","0.0"],
    [1027570,"2026-05-04 04:20:00","5853","0.2","51.6","0.8170000000000001","53.48","1012.778","17.04","84.3","NAN","0.0"],
    [1027571,"2026-05-04 04:30:00","5854","0.21600000000000003","91.4","0.7190000000000001","82.4","1012.773","17.05","84.9","NAN","0.0"],
    [1027572,"2026-05-04 04:40:00","5855","0.0","0.0","0.0","0.0","1012.743","17.01","84.9","NAN","0.0"],
    [1027573,"2026-05-04 04:50:00","5856","0.35700000000000004","130.3","0.653","146.5","1012.71","17.02","85.1","NAN","0.0"],
    [1027574,"2026-05-04 05:00:00","5857","0.201","129.3","0.555","139.5","1012.706","17.06","85.3","NAN","0.0"],
    [1027575,"2026-05-04 05:10:00","5858","0.157","166.6","0.425","169.9","1012.778","17.11","85.4","NAN","0.0"],
    [1027576,"2026-05-04 05:20:00","5859","0.32899999999999996","139.3","0.6859999999999999","141.4","1012.778","17.14","85.4","NAN","0.0"],
    [1027577,"2026-05-04 05:30:00","5860","0.395","162.3","0.8490000000000001","158.7","1012.778","17.16","85.5","NAN","0.0"],
    [1027578,"2026-05-04 05:40:00","5861","0.634","146.7","1.2409999999999999","157.7","1012.7769999999999","17.22","84.9","NAN","0.0"],
    [1027579,"2026-05-04 05:50:00","5862","0.6609999999999999","154.9","1.209","162.0","1012.77","17.29","84.8","NAN","0.0"],
    [1027580,"2026-05-04 06:00:00","5863","0.728","124.5","1.405","122.6","1012.738","17.42","85.3","NAN","0.0"],
    [1027581,"2026-05-04 06:10:00","5864","0.812","122.7","1.2409999999999999","111.7","1012.773","17.49","85.2","NAN","0.0"],
    [1027582,"2026-05-04 06:20:00","5865","0.597","150.3","1.209","152.8","1012.763","17.56","84.8","NAN","0.0"],
    [1027583,"2026-05-04 06:30:00","5866","0.28800000000000003","173.8","0.8490000000000001","142.8","1012.73","17.57","85.5","NAN","0.0"],
    [1027584,"2026-05-04 06:40:00","5867","0.314","162.3","0.8170000000000001","143.5","1012.684","17.91","83.3","NAN","0.0"],
    [1027585,"2026-05-04 06:50:00","5868","0.741","327.4","1.8619999999999999","321.1","1012.627","18.15","81.2","NAN","0.0"],
    [1027586,"2026-05-04 07:00:00","5869","0.715","304.1","1.764","283.6","1012.544","18.72","77.5","NAN","0.0"],
    [1027587,"2026-05-04 07:10:00","5870","0.726","259.5","1.633","294.9","1012.691","18.91","75.56","NAN","0.0"],
    [1027588,"2026-05-04 07:20:00","5871","0.424","120.7","1.568","141.8","1012.695","19.36","72.93","NAN","0.0"],
    [1027589,"2026-05-04 07:30:00","5872","1.4169999999999998","146.2","2.613","110.4","1012.671","18.97","77.62","NAN","0.0"],
    [1027590,"2026-05-04 07:40:00","5873","1.591","126.5","2.319","107.7","1012.5189999999999","18.56","80.8","NAN","0.0"],
    [1027591,"2026-05-04 07:50:00","5874","1.661","126.2","2.287","119.1","1012.382","18.93","78.82","NAN","0.0"],
    [1027592,"2026-05-04 08:00:00","5875","1.534","139.5","2.156","169.3","1012.3939999999999","19.13","77.0","NAN","0.0"],
    [1027593,"2026-05-04 08:10:00","5876","1.6340000000000001","163.7","2.875","158.5","1012.327","18.99","75.36","NAN","0.0"],
    [1027594,"2026-05-04 08:20:00","5877","1.419","173.2","2.352","152.4","1012.23","19.27","73.54","NAN","0.0"],
    [1027595,"2026-05-04 08:30:00","5878","1.53","182.2","2.515","188.6","1012.2","19.21","74.2","NAN","0.0"],
    [1027596,"2026-05-04 08:40:00","5879","2.181","185.2","3.528","178.9","1012.25","18.62","79.43","NAN","0.0"],
    [1027597,"2026-05-04 08:50:00","5880","2.041","178.0","2.9730000000000003","161.5","1012.21","18.37","80.8","NAN","0.0"],
    [1027598,"2026-05-04 09:00:00","5881","2.19","163.9","3.397","159.3","1012.135","18.39","81.7","NAN","0.0"],
    [1027599,"2026-05-04 09:10:00","5882","2.45","186.0","3.7569999999999997","188.0","1012.085","18.38","83.1","NAN","0.0"],
    [1027600,"2026-05-04 09:20:00","5883","2.826","177.7","4.541","180.6","1012.0110000000001","18.36","82.6","NAN","0.0"],
    [1027601,"2026-05-04 09:30:00","5884","3.057","175.5","4.802","177.0","1012.19","18.53","83.6","NAN","0.0"],
    [1027602,"2026-05-04 09:40:00","5885","2.9160000000000004","173.5","4.835","164.9","1012.153","18.86","82.4","NAN","0.0"],
    [1027603,"2026-05-04 09:50:00","5886","3.6260000000000003","173.2","5.521","177.5","1012.21","18.92","80.9","NAN","0.0"],
    [1027604,"2026-05-04 10:00:00","5887","3.458","177.7","5.782","168.9","1012.21","18.68","82.9","NAN","0.0"],
    [1027605,"2026-05-04 10:10:00","5888","2.8480000000000003","186.8","5.684","178.1","1012.217","18.52","84.6","NAN","0.0"],
    [1027606,"2026-05-04 10:20:00","5889","2.405","198.5","4.638999999999999","175.3","1012.207","18.83","82.3","NAN","0.0"],
    [1027607,"2026-05-04 10:30:00","5890","1.686","194.0","3.7239999999999998","163.7","1012.177","18.94","80.7","NAN","0.0"],
    [1027608,"2026-05-04 10:40:00","5891","1.446","193.1","2.9730000000000003","195.2","1012.138","19.14","78.32","NAN","0.0"],
    [1027609,"2026-05-04 10:50:00","5892","2.648","171.7","4.573","177.5","1012.05","18.89","78.78","NAN","0.0"],
    [1027610,"2026-05-04 11:00:00","5893","3.639","178.5","5.422999999999999","174.7","1012.043","18.04","88.5","NAN","0.4"],
    [1027611,"2026-05-04 11:10:00","5894","2.655","187.2","5.39","182.9","1011.904","17.44","94.3","NAN","0.1"],
    [1027612,"2026-05-04 11:20:00","5895","3.333","184.3","5.815","176.3","1011.992","17.38","94.8","NAN","0.2"],
    [1027613,"2026-05-04 11:30:00","5896","2.571","186.0","4.541","180.1","1011.8839999999999","17.33","94.1","NAN","0.0"],
    [1027614,"2026-05-04 11:40:00","5897","2.426","189.9","4.149","177.7","1011.9910000000001","17.59","92.4","NAN","0.0"],
    [1027615,"2026-05-04 11:50:00","5898","2.101","188.0","3.7569999999999997","164.3","1012.03","18.02","89.7","NAN","0.0"],
    [1027616,"2026-05-04 12:00:00","5899","2.62","184.4","4.835","173.8","1012.003","17.96","89.1","NAN","0.0"],
    [1027617,"2026-05-04 12:10:00","5900","1.96","205.8","3.7239999999999998","215.1","1011.8739999999999","18.27","90.3","NAN","0.0"],
    [1027618,"2026-05-04 12:20:00","5901","2.178","179.0","3.5610000000000004","178.0","1011.7810000000001","18.24","88.4","NAN","0.0"],
    [1027619,"2026-05-04 12:30:00","5902","2.036","184.1","3.397","180.8","1011.758","18.44","86.7","NAN","0.0"],
    [1027620,"2026-05-04 12:40:00","5903","1.5759999999999998","192.5","3.1689999999999996","162.0","1011.671","18.49","87.7","NAN","0.0"],
    [1027621,"2026-05-04 12:50:00","5904","1.78","195.5","4.345","213.9","1011.5110000000001","18.57","86.0","NAN","0.0"],
    [1027622,"2026-05-04 13:00:00","5905","1.662","191.2","3.005","189.6","1011.503","18.66","84.2","NAN","0.0"],
    [1027623,"2026-05-04 13:10:00","5906","1.449","210.1","3.397","215.4","1011.558","19.01","81.3","NAN","0.0"],
    [1027624,"2026-05-04 13:20:00","5907","2.245","198.8","4.1160000000000005","185.2","1011.597","19.36","78.11","NAN","0.0"],
    [1027625,"2026-05-04 13:30:00","5908","2.259","196.0","3.6910000000000003","205.3","1011.6030000000001","19.15","78.84","NAN","0.0"],
    [1027626,"2026-05-04 13:40:00","5909","2.0540000000000003","188.1","3.5610000000000004","177.2","1011.575","19.01","79.59","NAN","0.1"],
    [1027627,"2026-05-04 13:50:00","5910","1.4669999999999999","202.9","3.7239999999999998","181.1","1011.6030000000001","18.76","82.0","NAN","0.1"],
    [1027628,"2026-05-04 14:00:00","5911","1.179","217.2","2.94","261.9","1011.578","18.64","83.1","NAN","0.0"],
    [1027629,"2026-05-04 14:10:00","5912","1.251","238.7","2.679","193.3","1011.3789999999999","18.52","81.3","NAN","0.0"],
    [1027630,"2026-05-04 14:20:00","5913","1.4080000000000001","203.4","3.7889999999999997","207.6","1011.2710000000001","18.39","81.3","NAN","0.0"],
    [1027631,"2026-05-04 14:30:00","5914","1.278","207.8","2.7769999999999997","224.8","1011.309","18.36","81.2","NAN","0.0"],
    [1027632,"2026-05-04 14:40:00","5915","1.672","208.0","2.94","187.9","1011.2819999999999","18.29","83.0","NAN","0.3"],
    [1027633,"2026-05-04 14:50:00","5916","1.577","216.5","3.6910000000000003","210.3","1011.2189999999999","17.9","85.5","NAN","0.0"],
    [1027634,"2026-05-04 15:00:00","5917","1.215","215.3","2.613","227.2","1011.08","17.91","84.8","NAN","0.0"],
    [1027635,"2026-05-04 15:10:00","5918","1.669","211.3","2.7769999999999997","227.9","1010.971","17.78","86.0","NAN","0.1"],
    [1027636,"2026-05-04 15:20:00","5919","1.881","235.0","3.463","226.5","1010.931","17.7","87.8","NAN","0.1"],
    [1027637,"2026-05-04 15:30:00","5920","1.531","244.1","3.267","256.6","1010.903","17.45","87.0","NAN","0.8"],
    [1027638,"2026-05-04 15:40:00","5921","1.166","243.6","2.842","232.8","1010.793","17.13","85.8","NAN","0.4"],
    [1027639,"2026-05-04 15:50:00","5922","0.513","182.1","1.045","175.1","1010.898","17.21","88.0","NAN","0.3"],
    [1027640,"2026-05-04 16:00:00","5923","0.731","218.0","1.993","245.9","1011.038","17.22","90.9","NAN","0.1"],
    [1027641,"2026-05-04 16:10:00","5924","0.708","234.5","1.9269999999999998","265.5","1011.1419999999999","17.32","91.9","NAN","0.2"],
    [1027642,"2026-05-04 16:20:00","5925","0.57","186.8","1.143","192.5","1010.946","16.97","92.2","NAN","0.2"],
    [1027643,"2026-05-04 16:30:00","5926","0.212","178.1","0.7509999999999999","179.2","1010.835","16.9","92.5","NAN","0.2"],
    [1027644,"2026-05-04 16:40:00","5927","0.14400000000000002","118.8","0.6859999999999999","89.5","1010.7080000000001","17.15","92.4","NAN","0.1"],
    [1027645,"2026-05-04 16:50:00","5928","0.188","149.1","0.882","173.2","1010.578","17.15","92.1","NAN","0.0"],
    [1027646,"2026-05-04 17:00:00","5929","0.359","173.8","1.078","197.8","1010.495","17.28","91.9","NAN","0.0"],
    [1027647,"2026-05-04 17:10:00","5930","0.335","199.8","0.8170000000000001","198.0","1010.432","17.21","92.6","NAN","0.0"],
    [1027648,"2026-05-04 17:20:00","5931","0.8690000000000001","180.5","1.307","183.8","1010.435","17.2","92.3","NAN","0.0"],
    [1027649,"2026-05-04 17:30:00","5932","0.711","174.2","1.307","161.8","1010.495","17.19","92.5","NAN","0.0"],
    [1027650,"2026-05-04 17:40:00","5933","0.38","181.5","0.882","176.8","1010.427","17.27","92.4","NAN","0.0"],
    [1027651,"2026-05-04 17:50:00","5934","0.696","183.2","1.209","184.6","1010.409","17.34","91.9","NAN","0.0"],
    [1027652,"2026-05-04 18:00:00","5935","0.652","197.2","1.535","196.0","1010.4010000000001","17.38","91.9","NAN","0.0"],
    [1027653,"2026-05-04 18:10:00","5936","0.813","188.2","1.699","222.0","1010.2869999999999","17.33","90.2","NAN","0.0"],
    [1027654,"2026-05-04 18:20:00","5937","0.927","220.1","2.254","261.7","1010.422","17.43","90.4","NAN","0.0"],
    [1027655,"2026-05-04 18:30:00","5938","1.3030000000000002","221.9","2.7769999999999997","242.0","1010.7130000000001","17.42","89.5","NAN","0.0"],
    [1027656,"2026-05-04 18:40:00","5939","1.1520000000000001","227.6","2.548","222.6","1010.78","17.37","89.1","NAN","0.0"],
    [1027657,"2026-05-04 18:50:00","5940","1.1159999999999999","216.1","2.319","226.8","1010.81","17.25","89.8","NAN","0.0"],
    [1027658,"2026-05-04 19:00:00","5941","0.715","209.7","2.0580000000000003","201.4","1010.867","17.11","91.0","NAN","0.0"],
    [1027659,"2026-05-04 19:10:00","5942","1.018","216.6","2.0580000000000003","226.7","1010.9639999999999","16.97","91.8","NAN","0.0"],
    [1027660,"2026-05-04 19:20:00","5943","1.375","235.4","3.397","246.9","1011.079","16.97","91.3","NAN","0.0"],
    [1027661,"2026-05-04 19:30:00","5944","1.402","234.0","3.43","251.3","1011.1669999999999","17.04","87.6","NAN","0.0"],
    [1027662,"2026-05-04 19:40:00","5945","1.6440000000000001","227.8","3.397","254.0","1011.225","16.94","87.6","NAN","0.0"],
    [1027663,"2026-05-04 19:50:00","5946","1.601","245.7","3.234","242.2","1011.4810000000001","16.96","87.9","NAN","0.0"],
    [1027664,"2026-05-04 20:00:00","5947","1.662","244.4","3.495","237.3","1011.74","16.98","88.8","NAN","0.0"],
    [1027665,"2026-05-04 20:10:00","5948","1.1740000000000002","265.8","2.7439999999999998","244.8","1011.99","17.11","88.4","NAN","0.0"],
    [1027666,"2026-05-04 20:20:00","5949","1.715","314.7","5.2589999999999995","311.1","1011.913","17.45","81.1","NAN","0.0"],
    [1027667,"2026-05-04 20:30:00","5950","2.204","322.9","5.2589999999999995","311.1","1011.7460000000001","17.18","74.06","NAN","0.0"],
    [1027668,"2026-05-04 20:40:00","5951","1.493","285.4","3.6260000000000003","318.6","1011.7289999999999","16.76","74.54","NAN","0.0"],
    [1027669,"2026-05-04 20:50:00","5952","0.7090000000000001","15.88","2.319","20.38","1011.701","16.85","74.7","NAN","0.0"],
    [1027670,"2026-05-04 21:00:00","5953","1.014","326.2","2.45","344.4","1011.7239999999999","16.99","72.25","NAN","0.0"],
    [1027671,"2026-05-04 21:10:00","5954","0.9420000000000001","2.397","2.156","5.622999999999999","1011.72","16.91","71.96","NAN","0.0"],
    [1027672,"2026-05-04 21:20:00","5955","0.063","359.6","0.653","307.5","1011.691","16.73","72.79","NAN","0.0"],
    [1027673,"2026-05-04 21:30:00","5956","0.43","24.0","2.287","4.645","1011.576","16.74","71.09","NAN","0.0"],
    [1027674,"2026-05-04 21:40:00","5957","0.441","258.7","0.9470000000000001","278.1","1011.5419999999999","16.76","71.48","NAN","0.0"],
    [1027675,"2026-05-04 21:50:00","5958","0.6629999999999999","193.7","1.7309999999999999","190.9","1011.448","16.62","75.92","NAN","0.0"],
    [1027676,"2026-05-04 22:00:00","5959","0.8420000000000001","200.2","2.025","205.9","1011.313","16.28","78.91","NAN","0.0"],
    [1027677,"2026-05-04 22:10:00","5960","0.6459999999999999","225.1","1.666","236.9","1011.37","15.96","80.2","NAN","0.0"],
    [1027678,"2026-05-04 22:20:00","5961","1.364","252.7","2.7110000000000003","238.6","1011.43","16.0","79.42","NAN","0.0"],
    [1027679,"2026-05-04 22:30:00","5962","0.8540000000000001","254.3","1.7309999999999999","255.1","1011.382","15.83","81.2","NAN","0.0"],
    [1027680,"2026-05-04 22:40:00","5963","1.252","248.7","2.45","236.1","1011.42","15.78","81.8","NAN","0.0"],
    [1027681,"2026-05-04 22:50:00","5964","1.109","234.0","2.189","223.9","1011.554","15.66","82.1","NAN","0.0"],
    [1027682,"2026-05-04 23:00:00","5965","1.105","240.1","2.352","230.0","1011.57","15.62","82.0","NAN","0.0"],
    [1027683,"2026-05-04 23:10:00","5966","1.281","258.8","2.842","295.7","1011.6010000000001","15.83","78.8","NAN","0.0"],
    [1027684,"2026-05-04 23:20:00","5967","1.119","271.5","2.6460000000000004","268.8","1011.695","16.11","75.85","NAN","0.0"],
    [1027685,"2026-05-04 23:30:00","5968","0.9009999999999999","258.0","2.7110000000000003","242.8","1011.722","15.98","76.65","NAN","0.0"],
    [1027686,"2026-05-04 23:40:00","5969","0.8809999999999999","277.3","2.352","284.1","1011.7289999999999","16.03","74.92","NAN","0.0"],
    [1027687,"2026-05-04 23:50:00","5970","0.754","239.1","2.45","261.4","1011.7260000000001","16.08","74.34","NAN","0.0"],
    [1027688,"2026-05-05 00:00:00","5971","0.9890000000000001","230.8","1.96","253.5","1011.7239999999999","16.06","73.84","NAN","0.0"],
    [1027689,"2026-05-05 00:10:00","5972","0.36700000000000005","239.5","1.633","244.9","1011.721","16.02","73.43","NAN","0.0"],
    [1027690,"2026-05-05 00:20:00","5973","0.002","0.457","0.196","0.449","1011.711","15.84","74.4","NAN","0.0"],
    [1027691,"2026-05-05 00:30:00","5974","0.46299999999999997","52.39","1.307","32.09","1011.605","15.5","75.36","NAN","0.0"],
    [1027692,"2026-05-05 00:40:00","5975","0.39399999999999996","358.6","0.784","57.11","1011.5989999999999","15.66","72.28","NAN","0.0"],
    [1027693,"2026-05-05 00:50:00","5976","0.544","351.8","1.3719999999999999","360.0","1011.602","15.89","70.02","NAN","0.0"],
    [1027694,"2026-05-05 01:00:00","5977","0.5489999999999999","12.96","1.3719999999999999","7.4670000000000005","1011.643","15.87","69.1","NAN","0.0"],
    [1027695,"2026-05-05 01:10:00","5978","0.37200000000000005","352.7","1.339","308.5","1011.543","15.78","69.35","NAN","0.0"],
    [1027696,"2026-05-05 01:20:00","5979","0.39","301.5","1.568","303.0","1011.457","15.87","69.59","NAN","0.0"],
    [1027697,"2026-05-05 01:30:00","5980","0.591","247.8","1.176","266.6","1011.462","15.85","69.54","NAN","0.0"],
    [1027698,"2026-05-05 01:40:00","5981","0.66","283.2","1.601","299.7","1011.4739999999999","16.14","67.0","NAN","0.0"],
    [1027699,"2026-05-05 01:50:00","5982","1.104","316.6","2.875","310.7","1011.414","16.17","67.12","NAN","0.0"],
    [1027700,"2026-05-05 02:00:00","5983","1.349","265.9","3.7569999999999997","286.2","1011.477","16.21","66.66","NAN","0.0"],
    [1027701,"2026-05-05 02:10:00","5984","1.665","260.2","3.365","287.8","1011.475","16.25","66.1","NAN","0.0"],
    [1027702,"2026-05-05 02:20:00","5985","1.579","256.5","3.267","254.9","1011.4739999999999","16.18","66.67","NAN","0.0"],
    [1027703,"2026-05-05 02:30:00","5986","1.584","258.1","3.7569999999999997","261.5","1011.497","16.12","67.13","NAN","0.0"],
    [1027704,"2026-05-05 02:40:00","5987","1.5530000000000002","247.9","3.201","269.2","1011.53","16.05","67.72","NAN","0.0"],
    [1027705,"2026-05-05 02:50:00","5988","1.064","251.2","2.9730000000000003","251.2","1011.51","15.75","69.5","NAN","0.0"],
    [1027706,"2026-05-05 03:00:00","5989","1.265","248.8","3.299","260.0","1011.5089999999999","15.68","69.72","NAN","0.0"],
    [1027707,"2026-05-05 03:10:00","5990","1.5019999999999998","248.0","3.397","298.1","1011.4830000000001","15.66","69.55","NAN","0.0"],
    [1027708,"2026-05-05 03:20:00","5991","1.399","237.2","2.8089999999999997","244.3","1011.4789999999999","15.44","71.22","NAN","0.0"],
    [1027709,"2026-05-05 03:30:00","5992","1.8219999999999998","232.4","3.7239999999999998","246.4","1011.414","15.06","73.09","NAN","0.0"],
    [1027710,"2026-05-05 03:40:00","5993","1.7409999999999999","240.1","3.365","240.6","1011.3580000000001","15.02","73.13","NAN","0.0"],
    [1027711,"2026-05-05 03:50:00","5994","1.7269999999999999","237.6","3.822","232.8","1011.447","14.85","74.24","NAN","0.0"],
    [1027712,"2026-05-05 04:00:00","5995","1.57","245.5","3.299","236.5","1011.42","14.77","74.6","NAN","0.0"],
    [1027713,"2026-05-05 04:10:00","5996","1.262","242.1","2.7439999999999998","246.5","1011.367","14.72","75.05","NAN","0.0"],
    [1027714,"2026-05-05 04:20:00","5997","0.6890000000000001","241.7","1.764","250.8","1011.427","14.76","74.92","NAN","0.0"],
    [1027715,"2026-05-05 04:30:00","5998","0.483","292.2","1.895","306.3","1011.357","14.83","74.13","NAN","0.0"],
    [1027716,"2026-05-05 04:40:00","5999","0.374","297.9","1.4369999999999998","326.8","1011.3480000000001","14.87","73.23","NAN","0.0"],
    [1027717,"2026-05-05 04:50:00","6000","0.136","54.23","0.882","69.37","1011.3480000000001","14.69","74.18","NAN","0.0"],
    [1027718,"2026-05-05 05:00:00","6001","0.32","223.1","1.143","229.9","1011.34","14.6","75.08","NAN","0.0"],
    [1027719,"2026-05-05 05:10:00","6002","0.204","185.4","0.784","241.7","1011.238","14.68","75.48","NAN","0.0"],
    [1027720,"2026-05-05 05:20:00","6003","0.122","70.89","0.621","69.96","1011.153","14.7","76.37","NAN","0.0"],
    [1027721,"2026-05-05 05:30:00","6004","0.235","137.6","0.6859999999999999","180.3","1011.238","14.81","76.76","NAN","0.0"],
    [1027722,"2026-05-05 05:40:00","6005","1.044","234.9","2.189","255.9","1011.365","15.04","73.03","NAN","0.0"],
    [1027723,"2026-05-05 05:50:00","6006","1.228","235.3","2.45","251.7","1011.41","15.38","70.04","NAN","0.0"],
    [1027724,"2026-05-05 06:00:00","6007","0.8270000000000001","248.2","1.96","272.2","1011.378","15.56","68.59","NAN","0.0"],
    [1027725,"2026-05-05 06:10:00","6008","0.758","252.6","1.9269999999999998","249.8","1011.4760000000001","15.94","67.2","NAN","0.0"],
    [1027726,"2026-05-05 06:20:00","6009","0.9390000000000001","238.0","2.156","236.5","1011.4689999999999","16.02","66.6","NAN","0.0"],
    [1027727,"2026-05-05 06:30:00","6010","0.23600000000000002","295.2","1.013","239.7","1011.429","16.37","65.47","NAN","0.0"],
    [1027728,"2026-05-05 06:40:00","6011","0.718","41.52","1.829","7.001","1011.387","17.23","61.97","NAN","0.0"],
    [1027729,"2026-05-05 06:50:00","6012","0.6970000000000001","40.33","1.568","11.2","1011.422","17.0","61.78","NAN","0.0"],
    [1027730,"2026-05-05 07:00:00","6013","1.048","191.5","1.993","187.3","1011.378","17.27","62.61","NAN","0.0"],
    [1027731,"2026-05-05 07:10:00","6014","0.732","221.3","1.7309999999999999","240.8","1011.3489999999999","17.23","62.56","NAN","0.0"],
    [1027732,"2026-05-05 07:20:00","6015","0.759","151.9","1.8619999999999999","119.5","1011.498","17.84","60.08","NAN","0.0"],
    [1027733,"2026-05-05 07:30:00","6016","1.151","44.22","3.6260000000000003","60.17","1011.475","17.76","60.79","NAN","0.0"],
    [1027734,"2026-05-05 07:40:00","6017","1.328","37.66","3.365","36.84","1011.485","17.73","61.21","NAN","0.0"],
    [1027735,"2026-05-05 07:50:00","6018","1.724","26.99","4.671","30.35","1011.448","17.71","60.94","NAN","0.0"],
    [1027736,"2026-05-05 08:00:00","6019","1.4080000000000001","26.04","2.907","24.13","1011.323","18.06","57.67","NAN","0.0"],
    [1027737,"2026-05-05 08:10:00","6020","1.263","40.33","3.103","70.42","1011.3430000000001","17.96","57.8","NAN","0.0"],
    [1027738,"2026-05-05 08:20:00","6021","0.5920000000000001","19.79","1.405","75.5","1011.54","18.25","57.54","NAN","0.0"],
    [1027739,"2026-05-05 08:30:00","6022","1.165","188.7","2.842","185.6","1011.687","18.08","59.41","NAN","0.0"],
    [1027740,"2026-05-05 08:40:00","6023","1.5919999999999999","189.0","3.267","205.8","1011.732","17.29","64.76","NAN","0.0"],
    [1027741,"2026-05-05 08:50:00","6024","1.0490000000000002","188.2","3.495","214.3","1011.6110000000001","17.68","63.85","NAN","0.0"],
    [1027742,"2026-05-05 09:00:00","6025","1.105","125.4","2.156","107.9","1011.1560000000001","18.55","59.72","NAN","0.0"],
    [1027743,"2026-05-05 09:10:00","6026","1.71","140.5","2.7769999999999997","157.0","1011.296","18.43","59.93","NAN","0.0"],
    [1027744,"2026-05-05 09:20:00","6027","1.953","162.6","3.103","160.8","1011.428","18.44","60.33","NAN","0.0"],
    [1027745,"2026-05-05 09:30:00","6028","1.761","133.0","3.397","106.5","1011.341","18.81","59.12","NAN","0.0"],
    [1027746,"2026-05-05 09:40:00","6029","2.084","143.3","3.593","161.5","1011.58","18.31","62.55","NAN","0.0"],
    [1027747,"2026-05-05 09:50:00","6030","1.91","157.5","3.397","111.1","1011.931","17.92","64.17","NAN","0.0"],
    [1027748,"2026-05-05 10:00:00","6031","1.7530000000000001","147.9","3.6910000000000003","180.2","1011.7860000000001","17.69","65.0","NAN","0.0"],
    [1027749,"2026-05-05 10:10:00","6032","1.175","129.8","2.254","144.2","1011.712","17.56","65.27","NAN","0.0"],
    [1027750,"2026-05-05 10:20:00","6033","1.136","97.9","2.123","114.3","1011.577","17.6","65.25","NAN","0.0"],
    [1027751,"2026-05-05 10:30:00","6034","1.49","93.7","2.417","89.5","1011.48","18.19","61.99","NAN","0.0"],
    [1027752,"2026-05-05 10:40:00","6035","2.049","96.4","3.43","81.3","1011.535","18.0","61.92","NAN","0.0"],
    [1027753,"2026-05-05 10:50:00","6036","2.228","107.4","3.267","114.0","1011.582","18.12","62.94","NAN","0.0"],
    [1027754,"2026-05-05 11:00:00","6037","2.095","100.0","3.6260000000000003","97.1","1011.53","18.78","63.14","NAN","0.0"],
    [1027755,"2026-05-05 11:10:00","6038","1.9269999999999998","116.1","3.855","108.2","1011.465","18.73","61.92","NAN","0.0"],
    [1027756,"2026-05-05 11:20:00","6039","2.864","119.0","4.2139999999999995","108.1","1011.345","18.41","64.8","NAN","0.0"],
    [1027757,"2026-05-05 11:30:00","6040","2.741","117.0","4.279","108.9","1011.2460000000001","18.33","59.96","NAN","0.0"],
    [1027758,"2026-05-05 11:40:00","6041","2.3280000000000003","111.5","4.051","119.7","1011.2860000000001","18.32","62.44","NAN","0.0"],
    [1027759,"2026-05-05 11:50:00","6042","2.572","120.7","3.7569999999999997","108.0","1011.331","17.99","65.1","NAN","0.0"],
    [1027760,"2026-05-05 12:00:00","6043","2.49","130.1","3.822","144.8","1011.2139999999999","17.81","66.23","NAN","0.0"],
    [1027761,"2026-05-05 12:10:00","6044","2.64","126.2","4.247","118.5","1011.159","17.9","67.87","NAN","0.0"],
    [1027762,"2026-05-05 12:20:00","6045","2.096","139.7","4.2139999999999995","156.3","1011.064","18.54","66.71","NAN","0.0"],
    [1027763,"2026-05-05 12:30:00","6046","2.162","123.9","3.397","147.5","1010.9739999999999","18.39","67.46","NAN","0.0"],
    [1027764,"2026-05-05 12:40:00","6047","2.305","122.8","3.7239999999999998","106.1","1010.954","18.14","67.97","NAN","0.0"],
    [1027765,"2026-05-05 12:50:00","6048","2.24","117.4","3.7569999999999997","106.8","1010.88","18.67","67.24","NAN","0.0"],
    [1027766,"2026-05-05 13:00:00","6049","2.29","130.9","3.659","115.9","1010.86","18.25","66.15","NAN","0.0"],
    [1027767,"2026-05-05 13:10:00","6050","2.677","126.5","4.704","163.1","1010.852","18.27","63.68","NAN","0.0"],
    [1027768,"2026-05-05 13:20:00","6051","2.747","154.7","4.247","162.4","1010.85","17.82","70.39","NAN","0.0"],
    [1027769,"2026-05-05 13:30:00","6052","2.783","136.1","4.965","159.7","1010.735","17.75","70.63","NAN","0.0"],
    [1027770,"2026-05-05 13:40:00","6053","2.822","152.8","4.377","151.1","1010.706","17.75","70.37","NAN","0.0"],
    [1027771,"2026-05-05 13:50:00","6054","2.451","154.9","4.1160000000000005","147.0","1010.695","17.65","69.57","NAN","0.0"],
    [1027772,"2026-05-05 14:00:00","6055","1.859","138.8","3.365","106.7","1010.581","18.14","64.16","NAN","0.0"],
    [1027773,"2026-05-05 14:10:00","6056","1.892","132.9","3.887","153.5","1010.446","18.41","64.67","NAN","0.0"],
    [1027774,"2026-05-05 14:20:00","6057","2.548","149.6","3.985","156.9","1010.352","17.95","68.91","NAN","0.0"],
    [1027775,"2026-05-05 14:30:00","6058","2.3890000000000002","127.4","3.855","115.9","1010.217","17.77","69.3","NAN","0.0"],
    [1027776,"2026-05-05 14:40:00","6059","2.6039999999999996","157.2","3.659","164.4","1010.085","17.74","70.78","NAN","0.0"],
    [1027777,"2026-05-05 14:50:00","6060","2.025","139.1","3.0380000000000003","150.7","1009.9960000000001","17.97","71.74","NAN","0.0"],
    [1027778,"2026-05-05 15:00:00","6061","1.906","137.3","3.332","120.8","1009.9630000000001","18.14","72.34","NAN","0.0"],
    [1027779,"2026-05-05 15:10:00","6062","2.059","120.3","3.397","112.8","1009.988","18.09","72.84","NAN","0.0"],
    [1027780,"2026-05-05 15:20:00","6063","2.104","132.4","3.6260000000000003","93.6","1010.03","18.25","72.35","NAN","0.0"],
    [1027781,"2026-05-05 15:30:00","6064","1.893","121.8","3.0380000000000003","115.3","1010.0160000000001","17.8","74.95","NAN","0.0"],
    [1027782,"2026-05-05 15:40:00","6065","1.7009999999999998","136.8","3.234","105.4","1010.078","17.99","74.69","NAN","0.0"],
    [1027783,"2026-05-05 15:50:00","6066","1.5019999999999998","156.3","2.613","150.0","1010.185","17.83","74.84","NAN","0.0"],
    [1027784,"2026-05-05 16:00:00","6067","1.47","150.6","2.417","182.1","1010.095","17.85","75.58","NAN","0.0"],
    [1027785,"2026-05-05 16:10:00","6068","1.755","149.3","3.299","143.6","1009.966","18.12","74.91","NAN","0.0"],
    [1027786,"2026-05-05 16:20:00","6069","1.3319999999999999","151.4","2.6460000000000004","166.3","1010.013","17.91","75.53","NAN","0.0"],
    [1027787,"2026-05-05 16:30:00","6070","0.792","179.7","1.699","201.0","1010.205","18.23","73.06","NAN","0.0"],
    [1027788,"2026-05-05 16:40:00","6071","0.95","164.1","1.9269999999999998","178.4","1010.195","18.4","71.05","NAN","0.0"],
    [1027789,"2026-05-05 16:50:00","6072","1.186","123.9","2.025","116.4","1010.225","18.46","71.86","NAN","0.0"],
    [1027790,"2026-05-05 17:00:00","6073","1.2229999999999999","133.6","2.0909999999999997","142.3","1010.217","18.18","75.2","NAN","0.0"],
    [1027791,"2026-05-05 17:10:00","6074","1.089","93.0","2.0580000000000003","70.21","1010.221","18.23","74.02","NAN","0.0"],
    [1027792,"2026-05-05 17:20:00","6075","1.636","60.31","3.365","60.56","1010.221","18.59","62.61","NAN","0.0"],
    [1027793,"2026-05-05 17:30:00","6076","1.761","53.04","4.606","58.15","1010.212","18.99","53.5","NAN","0.0"],
    [1027794,"2026-05-05 17:40:00","6077","1.3219999999999998","332.8","3.463","260.9","1010.2719999999999","19.09","49.32","NAN","0.0"],
    [1027795,"2026-05-05 17:50:00","6078","1.422","230.4","3.463","320.5","1010.047","19.31","52.31","NAN","0.0"],
    [1027796,"2026-05-05 18:00:00","6079","1.442","194.8","3.234","187.3","1010.132","18.87","56.65","NAN","0.0"],
    [1027797,"2026-05-05 18:10:00","6080","1.874","189.9","3.1689999999999996","185.3","1010.113","18.68","62.75","NAN","0.0"],
    [1027798,"2026-05-05 18:20:00","6081","2.03","182.5","3.0380000000000003","184.5","1009.949","18.08","69.73","NAN","0.0"],
    [1027799,"2026-05-05 18:30:00","6082","2.021","183.9","3.299","181.1","1009.7689999999999","18.09","71.39","NAN","0.0"],
    [1027800,"2026-05-05 18:40:00","6083","1.9569999999999999","185.0","3.43","182.1","1009.585","18.04","73.44","NAN","0.0"],
    [1027801,"2026-05-05 18:50:00","6084","2.214","184.7","3.7889999999999997","176.5","1009.432","17.81","77.55","NAN","0.0"],
    [1027802,"2026-05-05 19:00:00","6085","1.4509999999999998","187.5","3.1689999999999996","183.6","1009.572","17.77","79.19","NAN","0.0"],
    [1027803,"2026-05-05 19:10:00","6086","1.6840000000000002","180.7","3.005","176.9","1009.716","17.64","80.8","NAN","0.0"],
    [1027804,"2026-05-05 19:20:00","6087","0.774","198.8","1.7309999999999999","180.5","1009.8430000000001","17.61","80.5","NAN","0.0"],
    [1027805,"2026-05-05 19:30:00","6088","1.5230000000000001","56.77","4.508","1.919","1009.855","17.4","72.74","NAN","0.0"],
    [1027806,"2026-05-05 19:40:00","6089","2.003","14.67","3.9530000000000003","3.5389999999999997","1010.0830000000001","16.91","62.73","NAN","0.0"],
    [1027807,"2026-05-05 19:50:00","6090","1.8980000000000001","3.591","3.985","7.933","1010.3560000000001","16.91","62.07","NAN","0.0"],
    [1027808,"2026-05-05 20:00:00","6091","1.037","331.3","3.463","312.7","1010.569","16.94","61.39","NAN","0.0"],
    [1027809,"2026-05-05 20:10:00","6092","0.955","328.0","2.189","347.1","1010.7760000000001","17.1","60.13","NAN","0.0"],
    [1027810,"2026-05-05 20:20:00","6093","1.074","328.8","2.483","309.7","1010.793","17.41","58.17","NAN","0.0"],
    [1027811,"2026-05-05 20:30:00","6094","0.614","286.2","1.535","323.5","1010.797","17.76","56.98","NAN","0.0"],
    [1027812,"2026-05-05 20:40:00","6095","0.607","258.6","1.5030000000000001","258.1","1010.827","17.9","55.95","NAN","0.0"],
    [1027813,"2026-05-05 20:50:00","6096","0.922","211.4","1.7309999999999999","264.1","1010.915","17.99","55.59","NAN","0.0"],
    [1027814,"2026-05-05 21:00:00","6097","0.903","194.3","1.7309999999999999","212.8","1010.83","17.72","58.82","NAN","0.0"],
    [1027815,"2026-05-05 21:10:00","6098","1.208","221.4","2.45","227.6","1010.9860000000001","17.76","58.03","NAN","0.0"],
    [1027816,"2026-05-05 21:20:00","6099","0.95","215.9","1.601","216.7","1011.184","17.73","57.7","NAN","0.0"],
    [1027817,"2026-05-05 21:30:00","6100","1.0290000000000001","246.5","2.0909999999999997","239.5","1011.221","17.73","56.78","NAN","0.0"],
    [1027818,"2026-05-05 21:40:00","6101","0.799","273.6","2.319","291.9","1011.3330000000001","17.79","55.6","NAN","0.0"],
    [1027819,"2026-05-05 21:50:00","6102","0.723","347.2","1.9269999999999998","10.06","1011.393","17.88","54.06","NAN","0.0"],
    [1027820,"2026-05-05 22:00:00","6103","0.674","314.3","1.601","325.5","1011.3","17.84","54.11","NAN","0.0"],
    [1027821,"2026-05-05 22:10:00","6104","0.934","334.4","2.352","311.9","1011.188","17.78","54.93","NAN","0.0"],
    [1027822,"2026-05-05 22:20:00","6105","0.914","279.1","1.797","266.3","1011.1360000000001","17.78","55.8","NAN","0.0"],
    [1027823,"2026-05-05 22:30:00","6106","1.0979999999999999","288.2","2.287","293.2","1011.1080000000001","17.73","57.17","NAN","0.0"],
    [1027824,"2026-05-05 22:40:00","6107","0.812","303.0","2.123","304.3","1010.9069999999999","17.59","58.83","NAN","0.0"],
    [1027825,"2026-05-05 22:50:00","6108","0.746","293.8","2.0909999999999997","304.2","1010.775","17.65","59.68","NAN","0.0"],
    [1027826,"2026-05-05 23:00:00","6109","0.518","307.2","2.254","260.8","1010.586","17.62","60.18","NAN","0.0"],
    [1027827,"2026-05-05 23:10:00","6110","0.584","241.9","1.601","238.3","1010.443","17.53","61.5","NAN","0.0"],
    [1027828,"2026-05-05 23:20:00","6111","0.248","125.2","0.8490000000000001","122.3","1010.505","17.36","62.47","NAN","0.0"],
    [1027829,"2026-05-05 23:30:00","6112","1.1520000000000001","53.71","3.005","27.06","1010.757","17.07","63.61","NAN","0.0"],
    [1027830,"2026-05-05 23:40:00","6113","1.1320000000000001","20.78","2.385","18.3","1010.9110000000001","16.65","65.73","NAN","0.0"],
    [1027831,"2026-05-05 23:50:00","6114","1.272","16.12","2.9730000000000003","358.8","1010.827","16.17","69.48","NAN","0.0"],
    [1027832,"2026-05-06 00:00:00","6115","1.375","12.78","3.5610000000000004","28.68","1010.8589999999999","15.9","70.96","NAN","0.0"],
    [1027833,"2026-05-06 00:10:00","6116","1.171","15.84","3.463","12.51","1010.8810000000001","15.72","71.72","NAN","0.0"],
    [1027834,"2026-05-06 00:20:00","6117","1.3259999999999998","10.48","3.201","358.0","1010.8839999999999","15.53","72.15","NAN","0.0"],
    [1027835,"2026-05-06 00:30:00","6118","1.723","6.069","3.136","38.36","1010.8430000000001","15.39","72.12","NAN","0.0"],
    [1027836,"2026-05-06 00:40:00","6119","1.173","358.7","2.254","356.9","1010.831","15.36","71.73","NAN","0.0"],
    [1027837,"2026-05-06 00:50:00","6120","0.6509999999999999","356.5","2.123","346.5","1010.813","15.43","71.13","NAN","0.0"],
    [1027838,"2026-05-06 01:00:00","6121","0.276","4.747","0.8170000000000001","40.28","1010.745","15.53","70.39","NAN","0.0"],
    [1027839,"2026-05-06 01:10:00","6122","0.836","37.89","1.535","4.2219999999999995","1010.622","15.58","69.78","NAN","0.0"],
    [1027840,"2026-05-06 01:20:00","6123","0.115","10.71","0.653","340.7","1010.5980000000001","15.56","69.03","NAN","0.0"],
    [1027841,"2026-05-06 01:30:00","6124","0.07400000000000001","302.8","0.6859999999999999","282.8","1010.605","15.35","69.49","NAN","0.0"],
    [1027842,"2026-05-06 01:40:00","6125","0.6809999999999999","60.81","1.633","26.44","1010.573","15.38","69.17","NAN","0.0"],
    [1027843,"2026-05-06 01:50:00","6126","0.579","40.34","1.5030000000000001","26.05","1010.75","15.09","69.92","NAN","0.0"],
    [1027844,"2026-05-06 02:00:00","6127","0.374","11.14","1.111","73.79","1010.712","14.87","71.23","NAN","0.0"],
    [1027845,"2026-05-06 02:10:00","6128","0.621","358.9","1.3719999999999999","5.587000000000001","1010.752","14.98","71.0","NAN","0.0"],
    [1027846,"2026-05-06 02:20:00","6129","0.267","284.0","0.9470000000000001","288.1","1010.79","15.29","69.63","NAN","0.0"],
    [1027847,"2026-05-06 02:30:00","6130","0.727","67.84","1.535","64.19","1010.8539999999999","15.17","70.33","NAN","0.0"],
    [1027848,"2026-05-06 02:40:00","6131","0.8009999999999999","56.16","1.535","56.61","1010.8489999999999","14.78","72.58","NAN","0.0"],
    [1027849,"2026-05-06 02:50:00","6132","0.25","44.9","0.6859999999999999","58.81","1010.852","14.77","72.37","NAN","0.0"],
    [1027850,"2026-05-06 03:00:00","6133","0.6990000000000001","41.49","1.339","30.96","1010.8439999999999","14.85","71.46","NAN","0.0"],
    [1027851,"2026-05-06 03:10:00","6134","0.345","16.34","1.143","38.66","1010.8489999999999","14.84","71.51","NAN","0.0"],
    [1027852,"2026-05-06 03:20:00","6135","0.239","19.02","0.7509999999999999","22.85","1010.837","14.81","71.67","NAN","0.0"],
    [1027853,"2026-05-06 03:30:00","6136","0.13699999999999998","295.6","0.8170000000000001","277.2","1010.847","14.85","71.68","NAN","0.0"],
    [1027854,"2026-05-06 03:40:00","6137","0.201","175.1","0.7190000000000001","127.8","1010.8539999999999","14.93","68.96","NAN","0.0"],
    [1027855,"2026-05-06 03:50:00","6138","0.615","42.15","1.274","359.9","1010.8539999999999","14.94","69.28","NAN","0.0"],
    [1027856,"2026-05-06 04:00:00","6139","0.233","287.1","1.078","287.9","1010.8889999999999","14.76","69.51","NAN","0.0"],
    [1027857,"2026-05-06 04:10:00","6140","1.105","242.4","2.7439999999999998","258.9","1010.9889999999999","14.9","64.06","NAN","0.0"],
    [1027858,"2026-05-06 04:20:00","6141","1.107","236.8","2.123","255.4","1010.949","14.97","62.43","NAN","0.0"],
    [1027859,"2026-05-06 04:30:00","6142","0.885","261.1","2.45","257.8","1010.9839999999999","14.91","61.72","NAN","0.0"],
    [1027860,"2026-05-06 04:40:00","6143","0.938","271.8","2.123","283.4","1011.079","15.07","60.41","NAN","0.0"],
    [1027861,"2026-05-06 04:50:00","6144","0.764","268.7","2.0909999999999997","303.8","1011.091","15.14","59.54","NAN","0.0"],
    [1027862,"2026-05-06 05:00:00","6145","0.691","340.0","1.535","7.825","1011.2330000000001","15.05","62.94","NAN","0.0"],
    [1027863,"2026-05-06 05:10:00","6146","0.544","26.84","1.633","14.12","1011.34","14.52","67.8","NAN","0.0"],
    [1027864,"2026-05-06 05:20:00","6147","0.6","44.98","1.47","26.42","1011.44","14.58","64.89","NAN","0.0"],
    [1027865,"2026-05-06 05:30:00","6148","0.8490000000000001","50.57","1.7309999999999999","48.28","1011.477","14.82","63.43","NAN","0.0"],
    [1027866,"2026-05-06 05:40:00","6149","0.7829999999999999","21.59","1.764","41.71","1011.57","14.62","63.57","NAN","0.0"],
    [1027867,"2026-05-06 05:50:00","6150","0.943","3.02","2.221","310.4","1011.6039999999999","14.88","60.05","NAN","0.0"],
    [1027868,"2026-05-06 06:00:00","6151","1.2930000000000001","316.3","4.1160000000000005","303.6","1011.6039999999999","15.69","54.63","NAN","0.0"],
    [1027869,"2026-05-06 06:10:00","6152","1.133","337.7","2.6460000000000004","299.6","1011.5989999999999","15.82","53.08","NAN","0.0"],
    [1027870,"2026-05-06 06:20:00","6153","0.977","347.7","2.7439999999999998","307.0","1011.653","16.02","52.2","NAN","0.0"],
    [1027871,"2026-05-06 06:30:00","6154","1.072","357.1","2.548","27.59","1011.672","16.01","52.38","NAN","0.0"],
    [1027872,"2026-05-06 06:40:00","6155","1.58","15.18","3.299","359.2","1011.7289999999999","16.07","52.5","NAN","0.0"],
    [1027873,"2026-05-06 06:50:00","6156","1.84","30.87","3.659","5.276","1011.883","15.76","53.64","NAN","0.0"],
    [1027874,"2026-05-06 07:00:00","6157","1.4480000000000002","33.87","3.495","66.32","1012.0139999999999","16.03","53.74","NAN","0.0"],
    [1027875,"2026-05-06 07:10:00","6158","1.705","26.14","3.92","34.25","1012.018","16.04","55.72","NAN","0.0"],
    [1027876,"2026-05-06 07:20:00","6159","1.921","45.33","3.855","73.94","1012.178","15.9","57.61","NAN","0.0"],
    [1027877,"2026-05-06 07:30:00","6160","1.545","41.73","3.463","53.68","1012.212","15.64","58.91","NAN","0.0"],
    [1027878,"2026-05-06 07:40:00","6161","1.151","111.2","2.0580000000000003","97.8","1012.362","15.89","57.79","NAN","0.0"],
    [1027879,"2026-05-06 07:50:00","6162","0.8540000000000001","45.47","1.9269999999999998","18.21","1012.459","16.53","54.53","NAN","0.0"],
    [1027880,"2026-05-06 08:00:00","6163","0.9620000000000001","127.7","2.254","93.7","1012.561","16.83","53.55","NAN","0.0"],
    [1027881,"2026-05-06 08:10:00","6164","0.97","132.9","2.45","111.5","1012.4760000000001","16.76","54.69","NAN","0.0"],
    [1027882,"2026-05-06 08:20:00","6165","1.347","109.4","2.7769999999999997","111.9","1012.461","17.2","52.97","NAN","0.0"],
    [1027883,"2026-05-06 08:30:00","6166","0.8059999999999999","130.8","1.96","93.6","1012.569","17.81","50.43","NAN","0.0"],
    [1027884,"2026-05-06 08:40:00","6167","1.7380000000000002","146.4","3.234","113.6","1012.698","17.44","51.19","NAN","0.0"],
    [1027885,"2026-05-06 08:50:00","6168","1.712","150.5","3.201","99.4","1012.698","17.28","51.6","NAN","0.0"],
    [1027886,"2026-05-06 09:00:00","6169","2.009","112.6","3.6910000000000003","104.5","1012.623","17.62","50.22","NAN","0.0"],
    [1027887,"2026-05-06 09:10:00","6170","1.008","114.0","3.005","150.1","1012.6439999999999","18.33","46.76","NAN","0.0"],
    [1027888,"2026-05-06 09:20:00","6171","1.3130000000000002","238.1","3.6910000000000003","273.5","1012.701","18.82","43.85","NAN","0.0"],
    [1027889,"2026-05-06 09:30:00","6172","2.492","247.5","5.227","257.1","1012.701","19.23","40.86","NAN","0.0"],
    [1027890,"2026-05-06 09:40:00","6173","1.607","267.4","3.7569999999999997","252.8","1012.7080000000001","19.36","40.94","NAN","0.0"],
    [1027891,"2026-05-06 09:50:00","6174","1.475","261.7","3.234","315.8","1012.703","19.52","39.38","NAN","0.0"],
    [1027892,"2026-05-06 10:00:00","6175","1.8519999999999999","296.5","3.9530000000000003","280.3","1012.5980000000001","19.46","39.68","NAN","0.0"],
    [1027893,"2026-05-06 10:10:00","6176","0.963","347.0","2.7110000000000003","19.41","1012.414","19.75","39.82","NAN","0.0"],
    [1027894,"2026-05-06 10:20:00","6177","1.077","262.5","2.45","276.6","1012.377","20.18","39.43","NAN","0.0"],
    [1027895,"2026-05-06 10:30:00","6178","1.483","157.9","3.985","112.1","1012.466","20.07","41.54","NAN","0.0"],
    [1027896,"2026-05-06 10:40:00","6179","2.387","188.0","4.573","180.9","1012.334","19.38","43.32","NAN","0.0"],
    [1027897,"2026-05-06 10:50:00","6180","3.134","182.8","4.998","176.8","1012.21","18.48","45.58","NAN","0.0"],
    [1027898,"2026-05-06 11:00:00","6181","2.747","185.8","4.312","181.4","1012.21","19.04","44.4","NAN","0.0"],
    [1027899,"2026-05-06 11:10:00","6182","3.134","173.2","5.684","181.1","1012.177","19.01","42.81","NAN","0.0"],
    [1027900,"2026-05-06 11:20:00","6183","3.492","180.9","5.847","177.4","1012.068","18.63","45.47","NAN","0.0"],
    [1027901,"2026-05-06 11:30:00","6184","3.364","180.2","5.521","181.0","1012.0010000000001","18.53","48.25","NAN","0.0"],
    [1027902,"2026-05-06 11:40:00","6185","3.2910000000000004","184.3","5.227","176.2","1011.9630000000001","18.47","48.36","NAN","0.0"],
    [1027903,"2026-05-06 11:50:00","6186","2.533","194.0","4.4430000000000005","187.3","1011.961","18.95","45.54","NAN","0.0"],
    [1027904,"2026-05-06 12:00:00","6187","3.1489999999999996","179.1","4.737","180.3","1011.943","18.8","46.26","NAN","0.0"],
    [1027905,"2026-05-06 12:10:00","6188","3.345","178.3","5.292000000000001","180.2","1011.955","18.59","48.05","NAN","0.0"],
    [1027906,"2026-05-06 12:20:00","6189","3.665","178.1","5.749","176.2","1011.95","18.87","45.49","NAN","0.0"],
    [1027907,"2026-05-06 12:30:00","6190","4.052","176.7","5.684","171.1","1011.909","18.12","49.26","NAN","0.0"],
    [1027908,"2026-05-06 12:40:00","6191","3.727","179.8","5.978","178.9","1011.961","18.2","48.61","NAN","0.0"],
    [1027909,"2026-05-06 12:50:00","6192","3.573","177.7","5.455","186.7","1011.873","18.25","49.08","NAN","0.0"],
    [1027910,"2026-05-06 13:00:00","6193","3.695","180.7","5.7170000000000005","179.1","1011.799","18.05","51.06","NAN","0.0"],
    [1027911,"2026-05-06 13:10:00","6194","3.5980000000000003","182.6","5.586","179.6","1011.758","18.16","51.03","NAN","0.0"],
    [1027912,"2026-05-06 13:20:00","6195","3.622","180.4","5.194","188.3","1011.717","18.05","52.18","NAN","0.0"],
    [1027913,"2026-05-06 13:30:00","6196","3.142","182.1","5.129","185.5","1011.6610000000001","18.5","52.14","NAN","0.0"],
    [1027914,"2026-05-06 13:40:00","6197","3.475","181.3","5.4879999999999995","184.1","1011.587","18.35","52.68","NAN","0.0"],
    [1027915,"2026-05-06 13:50:00","6198","3.497","179.5","4.998","190.2","1011.46","18.42","51.99","NAN","0.0"],
    [1027916,"2026-05-06 14:00:00","6199","3.734","177.7","5.2589999999999995","174.7","1011.418","18.24","53.15","NAN","0.0"],
    [1027917,"2026-05-06 14:10:00","6200","3.6860000000000004","180.6","5.7170000000000005","179.8","1011.336","18.4","54.03","NAN","0.0"],
    [1027918,"2026-05-06 14:20:00","6201","3.0439999999999996","180.6","4.769","173.4","1011.313","18.56","53.56","NAN","0.0"],
    [1027919,"2026-05-06 14:30:00","6202","3.659","182.5","5.684","183.4","1011.2310000000001","18.54","53.36","NAN","0.0"],
    [1027920,"2026-05-06 14:40:00","6203","3.648","182.7","5.2589999999999995","188.0","1011.194","18.36","53.41","NAN","0.0"],
    [1027921,"2026-05-06 14:50:00","6204","3.727","178.1","6.011","178.0","1011.082","18.33","54.58","NAN","0.0"],
    [1027922,"2026-05-06 15:00:00","6205","3.306","179.8","5.455","182.4","1011.079","18.48","53.59","NAN","0.0"],
    [1027923,"2026-05-06 15:10:00","6206","3.285","183.8","5.194","183.6","1010.977","18.52","52.37","NAN","0.0"],
    [1027924,"2026-05-06 15:20:00","6207","3.12","176.3","5.422999999999999","162.3","1010.962","18.63","52.69","NAN","0.0"],
    [1027925,"2026-05-06 15:30:00","6208","2.839","185.6","5.1610000000000005","181.3","1010.8969999999999","18.6","54.36","NAN","0.0"],
    [1027926,"2026-05-06 15:40:00","6209","2.569","177.7","4.573","177.8","1010.84","18.81","53.14","NAN","0.0"],
    [1027927,"2026-05-06 15:50:00","6210","2.681","186.5","4.279","177.5","1010.78","18.8","52.64","NAN","0.0"],
    [1027928,"2026-05-06 16:00:00","6211","2.8289999999999997","180.6","4.671","177.5","1010.7280000000001","18.69","54.33","NAN","0.0"],
    [1027929,"2026-05-06 16:10:00","6212","2.0669999999999997","195.0","3.855","202.6","1010.745","18.97","54.31","NAN","0.0"],
    [1027930,"2026-05-06 16:20:00","6213","2.363","188.6","4.312","178.6","1010.738","18.77","55.74","NAN","0.0"],
    [1027931,"2026-05-06 16:30:00","6214","1.965","188.7","3.495","181.9","1010.716","18.52","58.05","NAN","0.0"],
    [1027932,"2026-05-06 16:40:00","6215","2.303","186.7","4.018","174.6","1010.7189999999999","18.56","59.86","NAN","0.0"],
    [1027933,"2026-05-06 16:50:00","6216","2.298","176.6","3.593","144.5","1010.721","18.31","62.91","NAN","0.0"],
    [1027934,"2026-05-06 17:00:00","6217","1.952","177.9","3.365","178.1","1010.773","18.22","64.15","NAN","0.0"],
    [1027935,"2026-05-06 17:10:00","6218","2.186","185.1","4.018","168.6","1010.877","18.2","63.69","NAN","0.0"],
    [1027936,"2026-05-06 17:20:00","6219","1.979","173.6","3.201","171.8","1010.982","18.19","62.44","NAN","0.0"],
    [1027937,"2026-05-06 17:30:00","6220","1.906","182.8","3.201","174.4","1010.9680000000001","18.29","61.52","NAN","0.0"],
    [1027938,"2026-05-06 17:40:00","6221","2.208","178.3","3.365","187.7","1011.075","18.08","61.26","NAN","0.0"],
    [1027939,"2026-05-06 17:50:00","6222","2.059","180.1","3.365","180.6","1011.23","18.07","61.86","NAN","0.0"],
    [1027940,"2026-05-06 18:00:00","6223","2.244","182.0","3.495","174.0","1011.2280000000001","18.09","62.16","NAN","0.0"],
    [1027941,"2026-05-06 18:10:00","6224","2.023","180.2","3.6910000000000003","184.9","1011.317","17.96","62.23","NAN","0.0"],
    [1027942,"2026-05-06 18:20:00","6225","2.0909999999999997","181.6","3.332","178.0","1011.395","17.83","62.48","NAN","0.0"],
    [1027943,"2026-05-06 18:30:00","6226","1.611","169.4","2.8089999999999997","150.6","1011.4889999999999","17.87","62.64","NAN","0.0"]
]}
